createdAt,value
2019-04-16T00:01:22.052Z,3.10
2019-04-16T00:03:58.064Z,3.10
2019-04-16T00:06:34.668Z,3.10
2019-04-16T00:09:10.388Z,3.10
2019-04-16T00:11:56.679Z,3.00
2019-04-16T00:14:34.965Z,3.00
2019-04-16T00:17:04.983Z,3.00
2019-04-16T00:19:35.308Z,2.90
2019-04-16T00:22:22.953Z,2.80
2019-04-16T00:24:54.897Z,2.80
2019-04-16T00:27:29.362Z,2.80
2019-04-16T00:30:03.893Z,2.70
2019-04-16T00:32:31.243Z,2.80
2019-04-16T00:35:01.177Z,2.80
2019-04-16T00:37:30.954Z,2.80
2019-04-16T00:40:00.599Z,2.60
2019-04-16T00:42:30.349Z,2.60
2019-04-16T00:44:59.981Z,2.60
2019-04-16T00:47:29.593Z,2.50
2019-04-16T00:49:59.648Z,2.70
2019-04-16T00:52:29.508Z,2.60
2019-04-16T00:54:59.428Z,2.50
2019-04-16T00:57:29.069Z,2.50
2019-04-16T00:59:58.757Z,2.40
2019-04-16T01:02:28.783Z,2.40
2019-04-16T01:04:58.524Z,2.30
2019-04-16T01:07:28.134Z,2.40
2019-04-16T01:09:58.092Z,2.30
2019-04-16T01:12:28.080Z,2.30
2019-04-16T01:15:00.586Z,2.20
2019-04-16T01:17:29.038Z,2.10
2019-04-16T01:19:58.751Z,2.20
2019-04-16T01:22:28.601Z,2.10
2019-04-16T01:24:58.287Z,2.10
2019-04-16T01:27:34.209Z,2.20
2019-04-16T01:30:06.157Z,2.10
2019-04-16T01:32:53.413Z,2.20
2019-04-16T01:35:54.348Z,2.10
2019-04-16T01:38:32.608Z,2.10
2019-04-16T01:41:05.065Z,2.10
2019-04-16T01:43:34.900Z,2.10
2019-04-16T01:46:04.909Z,2.00
2019-04-16T01:48:38.594Z,2.00
2019-04-16T01:51:05.872Z,2.00
2019-04-16T01:53:36.164Z,2.10
2019-04-16T01:56:06.168Z,2.00
2019-04-16T01:58:35.864Z,2.00
2019-04-16T02:01:08.092Z,2.00
2019-04-16T02:03:36.994Z,2.00
2019-04-16T02:06:06.700Z,2.10
2019-04-16T02:08:36.532Z,2.00
2019-04-16T02:11:09.629Z,1.90
2019-04-16T02:13:37.973Z,2.00
2019-04-16T02:16:07.654Z,2.00
2019-04-16T02:18:37.608Z,1.90
2019-04-16T02:21:09.882Z,1.90
2019-04-16T02:23:49.239Z,1.80
2019-04-16T02:26:20.490Z,1.80
2019-04-16T02:28:50.706Z,1.80
2019-04-16T02:31:20.593Z,1.80
2019-04-16T02:33:50.771Z,1.80
2019-04-16T02:36:20.834Z,1.70
2019-04-16T02:38:53.220Z,1.70
2019-04-16T02:41:24.515Z,1.70
2019-04-16T02:43:54.783Z,1.70
2019-04-16T02:46:30.942Z,1.70
2019-04-16T02:48:56.011Z,1.60
2019-04-16T02:51:39.959Z,1.60
2019-04-16T02:54:13.071Z,1.60
2019-04-16T02:56:55.190Z,1.60
2019-04-16T02:59:30.265Z,1.50
2019-04-16T03:02:11.801Z,1.50
2019-04-16T03:04:45.819Z,1.50
2019-04-16T03:07:15.694Z,1.40
2019-04-16T03:09:45.395Z,1.40
2019-04-16T03:12:20.022Z,1.40
2019-04-16T03:14:48.093Z,1.30
2019-04-16T03:17:36.153Z,1.40
2019-04-16T03:20:07.575Z,1.40
2019-04-16T03:22:37.702Z,1.40
2019-04-16T03:25:12.528Z,1.40
2019-04-16T03:27:39.170Z,1.40
2019-04-16T03:30:10.218Z,1.40
2019-04-16T03:32:52.139Z,1.40
2019-04-16T03:35:25.486Z,1.40
2019-04-16T03:37:53.439Z,1.40
2019-04-16T03:40:25.623Z,1.40
2019-04-16T03:42:58.960Z,1.30
2019-04-16T03:45:26.983Z,1.40
2019-04-16T03:47:56.785Z,1.30
2019-04-16T03:50:31.095Z,1.30
2019-04-16T03:52:58.120Z,1.30
2019-04-16T03:55:28.000Z,1.20
2019-04-16T03:57:58.406Z,1.20
2019-04-16T04:00:28.224Z,1.20
2019-04-16T04:02:58.139Z,1.20
2019-04-16T04:05:28.120Z,1.30
2019-04-16T04:07:58.575Z,1.20
2019-04-16T04:10:31.309Z,1.20
2019-04-16T04:13:00.200Z,1.20
2019-04-16T04:15:30.011Z,1.20
2019-04-16T04:18:01.563Z,1.20
2019-04-16T04:20:31.711Z,1.20
2019-04-16T04:23:01.970Z,1.20
2019-04-16T04:25:35.933Z,1.10
2019-04-16T04:28:03.238Z,1.20
2019-04-16T04:30:32.861Z,1.10
2019-04-16T04:33:07.455Z,1.20
2019-04-16T04:35:34.738Z,1.20
2019-04-16T04:38:05.031Z,1.20
2019-04-16T04:40:44.426Z,1.20
2019-04-16T04:43:06.842Z,1.20
2019-04-16T04:45:37.712Z,1.20
2019-04-16T04:48:10.995Z,1.30
2019-04-16T04:50:39.864Z,1.30
2019-04-16T04:53:09.722Z,1.30
2019-04-16T04:55:39.424Z,1.30
2019-04-16T04:58:09.327Z,1.40
2019-04-16T05:00:40.506Z,1.40
2019-04-16T05:03:15.525Z,1.40
2019-04-16T05:05:48.653Z,1.40
2019-04-16T05:08:18.396Z,1.40
2019-04-16T05:10:58.296Z,1.50
2019-04-16T05:13:23.934Z,1.60
2019-04-16T05:15:50.898Z,1.60
2019-04-16T05:18:20.626Z,1.70
2019-04-16T05:20:50.327Z,1.70
2019-04-16T05:23:24.646Z,1.70
2019-04-16T05:25:51.337Z,1.70
2019-04-16T05:28:20.959Z,1.80
2019-04-16T05:30:52.327Z,1.90
2019-04-16T05:33:22.577Z,1.90
2019-04-16T05:35:52.193Z,2.00
2019-04-16T05:38:23.574Z,2.00
2019-04-16T05:40:54.518Z,2.00
2019-04-16T05:43:24.259Z,2.10
2019-04-16T05:45:53.966Z,2.20
2019-04-16T05:48:23.761Z,2.20
2019-04-16T05:50:53.443Z,2.20
2019-04-16T05:53:23.035Z,2.30
2019-04-16T05:56:06.613Z,2.30
2019-04-16T05:58:36.226Z,2.40
2019-04-16T06:01:34.256Z,2.40
2019-04-16T06:04:03.963Z,2.50
2019-04-16T06:06:33.581Z,2.50
2019-04-16T06:09:11.857Z,2.60
2019-04-16T06:11:39.413Z,2.70
2019-04-16T06:14:34.489Z,2.70
2019-04-16T06:17:25.435Z,2.70
2019-04-16T06:20:19.159Z,2.80
2019-04-16T06:23:08.287Z,2.90
2019-04-16T06:25:48.586Z,3.00
2019-04-16T06:28:35.814Z,3.10
2019-04-16T06:31:24.726Z,3.20
2019-04-16T06:34:24.399Z,3.20
2019-04-16T06:37:03.406Z,3.30
2019-04-16T06:39:43.649Z,3.40
2019-04-16T06:42:27.430Z,3.50
2019-04-16T06:45:01.598Z,3.50
2019-04-16T06:47:52.849Z,3.60
2019-04-16T06:50:40.976Z,3.70
2019-04-16T06:53:16.089Z,3.70
2019-04-16T06:55:56.153Z,3.80
2019-04-16T06:58:50.986Z,3.90
2019-04-16T07:01:49.244Z,3.90
2019-04-16T07:04:33.393Z,4.00
2019-04-16T07:07:14.041Z,4.20
2019-04-16T07:09:56.785Z,4.30
2019-04-16T07:12:28.602Z,4.30
2019-04-16T07:14:58.537Z,4.40
2019-04-16T07:17:34.573Z,4.50
2019-04-16T07:20:05.529Z,4.50
2019-04-16T07:22:35.334Z,4.60
2019-04-16T07:25:06.484Z,4.70
2019-04-16T07:27:42.921Z,4.70
2019-04-16T07:30:23.479Z,4.80
2019-04-16T07:33:15.727Z,4.90
2019-04-16T07:35:52.088Z,5.00
2019-04-16T07:38:26.439Z,5.10
2019-04-16T07:41:17.220Z,5.20
2019-04-16T07:44:08.123Z,5.20
2019-04-16T07:46:52.048Z,5.30
2019-04-16T07:49:40.839Z,5.30
2019-04-16T07:52:35.739Z,5.40
2019-04-16T07:55:43.422Z,5.50
2019-04-16T07:58:13.255Z,5.50
2019-04-16T08:00:43.415Z,5.70
2019-04-16T08:03:13.629Z,5.70
2019-04-16T08:05:43.441Z,5.80
2019-04-16T08:08:13.654Z,5.90
2019-04-16T08:10:43.596Z,6.00
2019-04-16T08:13:33.622Z,6.00
2019-04-16T08:16:04.277Z,6.10
2019-04-16T08:18:35.816Z,6.20
2019-04-16T08:21:10.225Z,6.20
2019-04-16T08:23:41.331Z,6.30
2019-04-16T08:26:13.669Z,6.30
2019-04-16T08:28:43.257Z,6.40
2019-04-16T08:31:19.817Z,6.40
2019-04-16T08:33:50.411Z,6.50
2019-04-16T08:36:20.781Z,6.50
2019-04-16T08:38:51.372Z,6.60
2019-04-16T08:41:21.716Z,6.70
2019-04-16T08:43:51.657Z,6.80
2019-04-16T08:46:22.450Z,6.90
2019-04-16T08:48:54.229Z,7.00
2019-04-16T08:51:30.711Z,7.10
2019-04-16T08:53:56.341Z,7.20
2019-04-16T08:56:26.459Z,7.20
2019-04-16T08:59:00.285Z,7.20
2019-04-16T09:01:30.627Z,7.30
2019-04-16T09:04:02.404Z,7.30
2019-04-16T09:06:32.262Z,7.50
2019-04-16T09:09:14.643Z,7.50
2019-04-16T09:11:48.370Z,7.60
2019-04-16T09:14:20.969Z,7.70
2019-04-16T09:17:05.119Z,7.70
2019-04-16T09:19:36.015Z,7.80
2019-04-16T09:22:05.793Z,7.90
2019-04-16T09:24:41.528Z,7.90
2019-04-16T09:27:20.838Z,8.00
2019-04-16T09:30:19.248Z,8.10
2019-04-16T09:33:00.356Z,8.10
2019-04-16T09:35:47.444Z,8.30
2019-04-16T09:38:32.185Z,8.30
2019-04-16T09:41:16.565Z,8.40
2019-04-16T09:43:49.070Z,8.50
2019-04-16T09:46:24.957Z,8.60
2019-04-16T09:48:51.336Z,8.70
2019-04-16T09:51:21.520Z,8.70
2019-04-16T09:53:51.904Z,8.80
2019-04-16T09:56:29.513Z,8.90
2019-04-16T09:59:04.680Z,9.10
2019-04-16T10:01:53.529Z,9.10
2019-04-16T10:04:26.308Z,9.20
2019-04-16T10:06:56.159Z,9.20
2019-04-16T10:09:26.297Z,9.30
2019-04-16T10:11:57.426Z,9.40
2019-04-16T10:14:27.484Z,9.50
2019-04-16T10:16:57.438Z,9.60
2019-04-16T10:19:27.163Z,9.60
2019-04-16T10:21:57.132Z,9.70
2019-04-16T10:24:46.623Z,9.80
2019-04-16T10:27:48.130Z,9.90
2019-04-16T10:30:43.775Z,10.00
2019-04-16T10:33:14.081Z,10.00
2019-04-16T10:35:43.991Z,10.10
2019-04-16T10:38:35.931Z,10.20
2019-04-16T10:41:09.950Z,10.30
2019-04-16T10:44:03.535Z,10.40
2019-04-16T10:46:40.087Z,10.40
2019-04-16T10:49:21.383Z,10.50
2019-04-16T10:52:01.261Z,10.60
2019-04-16T10:54:45.365Z,10.70
2019-04-16T10:57:33.449Z,10.80
2019-04-16T11:00:25.254Z,11.10
2019-04-16T11:03:04.933Z,11.30
2019-04-16T11:05:40.482Z,11.50
2019-04-16T11:08:12.525Z,11.70
2019-04-16T11:10:42.301Z,11.90
2019-04-16T11:13:16.908Z,11.90
2019-04-16T11:15:46.891Z,11.90
2019-04-16T11:18:16.859Z,11.80
2019-04-16T11:20:46.780Z,11.80
2019-04-16T11:23:17.534Z,11.90
2019-04-16T11:25:47.840Z,11.90
2019-04-16T11:28:17.807Z,11.80
2019-04-16T11:30:50.179Z,11.80
2019-04-16T11:33:20.423Z,11.90
2019-04-16T11:35:53.022Z,11.90
2019-04-16T11:38:22.247Z,11.90
2019-04-16T11:40:52.190Z,12.00
2019-04-16T11:43:21.931Z,12.00
2019-04-16T11:45:52.421Z,12.00
2019-04-16T11:48:22.261Z,12.10
2019-04-16T11:50:52.022Z,12.20
2019-04-16T11:53:21.897Z,12.10
2019-04-16T11:55:51.579Z,12.00
2019-04-16T11:58:31.231Z,12.20
2019-04-16T12:01:23.250Z,12.30
2019-04-16T12:04:19.239Z,12.30
2019-04-16T12:07:08.143Z,12.30
2019-04-16T12:09:48.202Z,12.40
2019-04-16T12:12:33.013Z,12.40
2019-04-16T12:15:14.887Z,12.40
2019-04-16T12:18:19.105Z,12.50
2019-04-16T12:21:02.704Z,12.50
2019-04-16T12:23:50.922Z,12.60
2019-04-16T12:26:52.029Z,12.70
2019-04-16T12:29:28.791Z,12.70
2019-04-16T12:32:26.650Z,12.60
2019-04-16T12:35:13.929Z,12.70
2019-04-16T12:38:01.659Z,12.80
2019-04-16T12:40:50.660Z,12.80
2019-04-16T12:43:39.860Z,12.80
2019-04-16T12:46:27.238Z,12.70
2019-04-16T12:49:14.499Z,12.80
2019-04-16T12:52:06.298Z,12.90
2019-04-16T12:54:49.374Z,13.00
2019-04-16T12:57:28.994Z,12.90
2019-04-16T13:00:13.823Z,13.00
2019-04-16T13:03:05.309Z,13.10
2019-04-16T13:05:44.626Z,13.10
2019-04-16T13:08:32.530Z,13.10
2019-04-16T13:11:16.200Z,13.10
2019-04-16T13:14:14.226Z,13.10
2019-04-16T13:16:52.926Z,13.10
2019-04-16T13:19:46.845Z,13.20
2019-04-16T13:22:17.942Z,13.20
2019-04-16T13:24:52.528Z,13.20
2019-04-16T13:27:24.779Z,13.20
2019-04-16T13:29:54.401Z,13.20
2019-04-16T13:32:27.584Z,13.20
2019-04-16T13:34:58.029Z,13.20
2019-04-16T13:37:30.298Z,13.20
2019-04-16T13:40:04.443Z,13.30
2019-04-16T13:42:34.274Z,13.30
2019-04-16T13:45:17.574Z,13.30
2019-04-16T13:47:54.554Z,13.20
2019-04-16T13:50:35.969Z,13.20
2019-04-16T13:53:08.018Z,13.30
2019-04-16T13:55:51.519Z,13.40
2019-04-16T13:58:31.449Z,13.50
2019-04-16T14:01:10.648Z,13.50
2019-04-16T14:03:40.744Z,13.50
2019-04-16T14:06:11.207Z,13.50
2019-04-16T14:08:41.537Z,13.60
2019-04-16T14:11:11.142Z,13.50
2019-04-16T14:13:42.040Z,13.50
2019-04-16T14:16:13.047Z,13.60
2019-04-16T14:18:43.367Z,13.60
2019-04-16T14:21:13.706Z,13.70
2019-04-16T14:23:43.366Z,13.60
2019-04-16T14:26:13.194Z,13.70
2019-04-16T14:28:51.904Z,13.70
2019-04-16T14:31:17.269Z,13.60
2019-04-16T14:33:59.673Z,13.60
2019-04-16T14:36:29.495Z,13.60
2019-04-16T14:39:06.760Z,13.60
2019-04-16T14:41:35.743Z,13.60
2019-04-16T14:44:10.283Z,13.60
2019-04-16T14:46:39.984Z,13.60
2019-04-16T14:49:09.794Z,13.60
2019-04-16T14:51:39.390Z,13.60
2019-04-16T14:54:27.147Z,13.60
2019-04-16T14:56:58.370Z,13.60
2019-04-16T14:59:43.120Z,13.70
2019-04-16T15:02:32.675Z,13.70
2019-04-16T15:05:33.486Z,13.70
2019-04-16T15:08:22.246Z,13.70
2019-04-16T15:11:17.045Z,13.80
2019-04-16T15:13:51.904Z,13.70
2019-04-16T15:16:39.990Z,13.70
2019-04-16T15:19:27.786Z,13.70
2019-04-16T15:22:15.545Z,13.70
2019-04-16T15:25:03.003Z,13.70
2019-04-16T15:27:50.687Z,13.80
2019-04-16T15:30:38.819Z,13.80
2019-04-16T15:33:27.273Z,13.80
2019-04-16T15:36:19.512Z,14.00
2019-04-16T15:39:07.878Z,13.90
2019-04-16T15:41:57.044Z,13.90
2019-04-16T15:44:52.701Z,13.90
2019-04-16T15:47:42.917Z,14.00
2019-04-16T15:50:16.094Z,14.10
2019-04-16T15:52:53.569Z,14.10
2019-04-16T15:55:48.726Z,14.10
2019-04-16T15:58:37.570Z,14.20
2019-04-16T16:01:18.320Z,14.20
2019-04-16T16:04:07.172Z,14.20
2019-04-16T16:06:45.073Z,14.30
2019-04-16T16:09:40.942Z,14.30
2019-04-16T16:12:14.028Z,14.50
2019-04-16T16:14:44.171Z,14.50
2019-04-16T16:17:16.439Z,14.60
2019-04-16T16:19:46.133Z,14.60
2019-04-16T16:22:18.169Z,14.80
2019-04-16T16:24:48.266Z,14.80
2019-04-16T16:27:20.069Z,14.80
2019-04-16T16:29:50.266Z,14.80
2019-04-16T16:32:20.145Z,14.90
2019-04-16T16:34:50.030Z,14.90
2019-04-16T16:37:20.360Z,14.90
2019-04-16T16:39:50.451Z,14.90
2019-04-16T16:42:20.229Z,14.90
2019-04-16T16:44:50.336Z,14.80
2019-04-16T16:47:39.856Z,14.90
2019-04-16T16:50:12.737Z,15.00
2019-04-16T16:53:07.465Z,15.10
2019-04-16T16:55:40.852Z,15.20
2019-04-16T16:58:24.036Z,15.10
2019-04-16T17:01:14.071Z,14.90
2019-04-16T17:03:57.534Z,14.90
2019-04-16T17:06:30.825Z,14.90
2019-04-16T17:09:02.073Z,14.90
2019-04-16T17:11:32.083Z,14.80
2019-04-16T17:14:03.113Z,14.80
2019-04-16T17:16:33.730Z,14.90
2019-04-16T17:19:07.639Z,14.80
2019-04-16T17:21:37.766Z,14.80
2019-04-16T17:24:07.823Z,14.80
2019-04-16T17:26:37.821Z,14.70
2019-04-16T17:29:07.515Z,14.50
2019-04-16T17:31:37.415Z,14.40
2019-04-16T17:34:07.093Z,14.30
2019-04-16T17:36:36.921Z,14.10
2019-04-16T17:39:10.478Z,14.00
2019-04-16T17:42:04.598Z,13.90
2019-04-16T17:44:40.017Z,13.80
2019-04-16T17:47:33.146Z,13.60
2019-04-16T17:50:28.462Z,13.50
2019-04-16T17:53:15.915Z,13.30
2019-04-16T17:56:07.962Z,13.20
2019-04-16T17:58:53.496Z,13.00
2019-04-16T18:01:43.374Z,12.90
2019-04-16T18:04:27.269Z,12.80
2019-04-16T18:07:13.978Z,12.70
2019-04-16T18:09:51.063Z,12.60
2019-04-16T18:12:56.479Z,12.40
2019-04-16T18:15:43.524Z,12.30
2019-04-16T18:18:24.117Z,12.20
2019-04-16T18:21:06.135Z,12.20
2019-04-16T18:23:47.217Z,12.10
2019-04-16T18:26:32.913Z,12.00
2019-04-16T18:29:20.808Z,12.00
2019-04-16T18:32:02.960Z,11.90
2019-04-16T18:34:43.448Z,11.80
2019-04-16T18:37:52.592Z,11.80
2019-04-16T18:40:56.553Z,11.80
2019-04-16T18:43:38.077Z,11.80
2019-04-16T18:46:19.238Z,11.70
2019-04-16T18:48:55.052Z,11.60
2019-04-16T18:51:24.994Z,11.50
2019-04-16T18:53:55.043Z,11.50
2019-04-16T18:56:25.478Z,11.40
2019-04-16T18:58:58.367Z,11.40
2019-04-16T19:01:29.632Z,11.30
2019-04-16T19:04:00.422Z,11.30
2019-04-16T19:06:30.181Z,11.30
2019-04-16T19:08:59.998Z,11.30
2019-04-16T19:11:29.963Z,11.20
2019-04-16T19:13:59.888Z,11.10
2019-04-16T19:16:33.804Z,11.10
2019-04-16T19:19:06.312Z,11.10
2019-04-16T19:21:36.039Z,11.00
2019-04-16T19:24:06.151Z,10.90
2019-04-16T19:26:36.032Z,11.00
2019-04-16T19:29:13.135Z,10.90
2019-04-16T19:31:40.904Z,10.90
2019-04-16T19:34:11.782Z,11.00
2019-04-16T19:36:41.664Z,11.00
2019-04-16T19:39:15.091Z,11.00
2019-04-16T19:41:44.702Z,11.00
2019-04-16T19:44:15.688Z,11.00
2019-04-16T19:46:45.758Z,10.90
2019-04-16T19:49:16.640Z,10.90
2019-04-16T19:51:46.390Z,10.90
2019-04-16T19:54:16.207Z,10.90
2019-04-16T19:56:51.177Z,10.90
2019-04-16T19:59:18.218Z,10.70
2019-04-16T20:01:49.808Z,10.70
2019-04-16T20:04:20.732Z,10.60
2019-04-16T20:06:50.725Z,10.60
2019-04-16T20:09:21.438Z,10.60
2019-04-16T20:11:55.461Z,10.60
2019-04-16T20:14:25.831Z,10.50
2019-04-16T20:16:55.781Z,10.50
2019-04-16T20:19:25.473Z,10.50
2019-04-16T20:21:55.222Z,10.50
2019-04-16T20:24:24.855Z,10.40
2019-04-16T20:26:54.658Z,10.40
2019-04-16T20:29:24.909Z,10.40
2019-04-16T20:31:54.647Z,10.40
2019-04-16T20:34:24.309Z,10.40
2019-04-16T20:36:55.843Z,10.30
2019-04-16T20:39:25.520Z,10.30
2019-04-16T20:41:59.258Z,10.20
2019-04-16T20:44:26.788Z,10.20
2019-04-16T20:46:58.277Z,10.20
2019-04-16T20:49:28.070Z,10.10
2019-04-16T20:52:00.609Z,10.00
2019-04-16T20:54:29.371Z,9.90
2019-04-16T20:56:59.005Z,9.90
2019-04-16T20:59:28.622Z,9.70
2019-04-16T21:01:58.594Z,9.60
2019-04-16T21:04:28.605Z,9.60
2019-04-16T21:06:58.274Z,9.60
2019-04-16T21:09:30.133Z,9.60
2019-04-16T21:11:59.227Z,9.50
2019-04-16T21:14:29.645Z,9.50
2019-04-16T21:17:06.859Z,9.40
2019-04-16T21:19:47.998Z,9.40
2019-04-16T21:22:18.852Z,9.30
2019-04-16T21:24:51.740Z,9.20
2019-04-16T21:27:24.501Z,9.10
2019-04-16T21:29:56.938Z,9.20
2019-04-16T21:32:58.107Z,9.10
2019-04-16T21:35:39.428Z,9.00
2019-04-16T21:38:22.332Z,9.00
2019-04-16T21:40:52.813Z,8.90
2019-04-16T21:43:23.980Z,8.80
2019-04-16T21:45:53.832Z,8.70
2019-04-16T21:48:23.809Z,8.70
2019-04-16T21:50:55.384Z,8.70
2019-04-16T21:53:27.827Z,8.60
2019-04-16T21:55:56.552Z,8.60
2019-04-16T21:58:26.113Z,8.60
2019-04-16T22:01:05.195Z,8.50
2019-04-16T22:03:35.281Z,8.60
2019-04-16T22:06:04.913Z,8.50
2019-04-16T22:08:34.477Z,8.60
2019-04-16T22:11:04.272Z,8.60
2019-04-16T22:13:33.925Z,8.60
2019-04-16T22:16:05.077Z,8.50
2019-04-16T22:18:37.523Z,8.50
2019-04-16T22:21:11.161Z,8.40
2019-04-16T22:23:41.082Z,8.30
2019-04-16T22:26:11.103Z,8.40
2019-04-16T22:28:44.177Z,8.30
2019-04-16T22:31:12.297Z,8.30
2019-04-16T22:33:42.127Z,8.20
2019-04-16T22:36:11.769Z,8.20
2019-04-16T22:38:43.008Z,8.10
2019-04-16T22:41:27.543Z,8.20
2019-04-16T22:44:15.117Z,8.10
2019-04-16T22:46:54.100Z,8.10
2019-04-16T22:49:23.810Z,8.10
2019-04-16T22:51:53.407Z,8.00
2019-04-16T22:54:23.052Z,8.00
2019-04-16T22:57:03.313Z,7.80
2019-04-16T22:59:33.197Z,7.80
2019-04-16T23:02:04.771Z,7.80
2019-04-16T23:04:34.488Z,7.70
2019-04-16T23:07:07.058Z,7.70
2019-04-16T23:09:36.289Z,7.60
2019-04-16T23:12:05.885Z,7.60
2019-04-16T23:14:35.766Z,7.50
2019-04-16T23:17:05.604Z,7.50
2019-04-16T23:19:35.189Z,7.50
2019-04-16T23:22:06.480Z,7.50
2019-04-16T23:24:36.138Z,7.50
2019-04-16T23:27:06.379Z,7.40
2019-04-16T23:29:36.328Z,7.30
2019-04-16T23:32:06.482Z,7.30
2019-04-16T23:34:38.111Z,7.20
2019-04-16T23:37:07.441Z,7.30
2019-04-16T23:39:37.637Z,7.20
2019-04-16T23:42:07.305Z,7.10
2019-04-16T23:44:54.674Z,7.10
2019-04-16T23:47:43.246Z,7.10
2019-04-16T23:50:45.013Z,7.00
2019-04-16T23:53:25.963Z,7.10
2019-04-16T23:56:12.968Z,7.10
2019-04-16T23:58:48.327Z,7.10
